createdAt,value
2023-02-19T00:00:00.795Z,12.1
2023-02-19T00:01:00.904Z,12.1
2023-02-19T00:02:00.698Z,12.1
2023-02-19T00:03:00.938Z,12.1
2023-02-19T00:04:02.015Z,12.1
2023-02-19T00:05:00.764Z,12.1
2023-02-19T00:08:00.743Z,12.1
2023-02-19T00:09:01.183Z,13.1
2023-02-19T00:10:00.763Z,13.1
2023-02-19T00:11:02.453Z,13.1
2023-02-19T00:12:00.734Z,13.1
2023-02-19T00:13:00.733Z,13.1
2023-02-19T00:14:01.916Z,13.1
2023-02-19T00:15:00.740Z,13.1
2023-02-19T00:16:04.792Z,13.1
2023-02-19T00:17:00.734Z,13.1
2023-02-19T00:18:00.749Z,13.1
2023-02-19T00:19:02.361Z,8.4
2023-02-19T00:20:00.804Z,8.4
2023-02-19T00:21:01.192Z,8.4
2023-02-19T00:22:00.743Z,8.4
2023-02-19T00:23:00.716Z,8.4
2023-02-19T00:24:01.806Z,8.4
2023-02-19T00:25:00.735Z,8.4
2023-02-19T00:26:17.255Z,8.4
2023-02-19T00:27:00.736Z,8.4
2023-02-19T00:28:00.725Z,8.4
2023-02-19T00:29:00.788Z,8.1
2023-02-19T00:30:00.821Z,8.1
2023-02-19T00:31:10.928Z,8.1
2023-02-19T00:32:00.871Z,8.1
2023-02-19T00:33:00.732Z,8.1
2023-02-19T00:34:02.002Z,8.1
2023-02-19T00:35:00.726Z,8.1
2023-02-19T00:36:01.572Z,8.1
2023-02-19T00:37:00.708Z,8.1
2023-02-19T00:38:00.743Z,8.1
2023-02-19T00:39:00.956Z,8.2
2023-02-19T00:40:00.767Z,8.2
2023-02-19T00:41:00.754Z,8.2
2023-02-19T00:42:00.784Z,8.2
2023-02-19T00:43:00.739Z,8.2
2023-02-19T00:44:02.077Z,8.2
2023-02-19T00:45:00.723Z,8.2
2023-02-19T00:46:00.798Z,8.2
2023-02-19T00:47:00.738Z,8.2
2023-02-19T00:48:00.758Z,8.2
2023-02-19T00:49:01.116Z,7.8
2023-02-19T00:50:00.745Z,7.8
2023-02-19T00:51:00.716Z,7.8
2023-02-19T00:52:00.734Z,7.8
2023-02-19T00:53:00.838Z,7.8
2023-02-19T00:54:01.086Z,7.8
2023-02-19T00:55:00.810Z,7.8
2023-02-19T00:56:00.812Z,7.8
2023-02-19T00:57:00.727Z,7.8
2023-02-19T00:58:00.894Z,7.8
2023-02-19T00:59:00.760Z,6.7
2023-02-19T01:00:00.738Z,6.7
2023-02-19T01:01:00.773Z,6.7
2023-02-19T01:02:00.717Z,6.7
2023-02-19T01:03:01.669Z,6.7
2023-02-19T01:04:00.837Z,6.7
2023-02-19T01:05:00.778Z,6.7
2023-02-19T01:06:01.245Z,6.7
2023-02-19T01:07:00.720Z,6.7
2023-02-19T01:08:00.751Z,6.7
2023-02-19T01:09:01.167Z,7.1
2023-02-19T01:10:00.749Z,7.1
2023-02-19T01:11:01.305Z,7.1
2023-02-19T01:12:00.728Z,7.1
2023-02-19T01:13:00.734Z,7.1
2023-02-19T01:14:01.063Z,7.1
2023-02-19T01:15:00.751Z,7.1
2023-02-19T01:16:10.641Z,7.1
2023-02-19T01:17:00.696Z,7.1
2023-02-19T01:18:00.793Z,7.1
2023-02-19T01:19:01.057Z,7.2
2023-02-19T01:20:00.760Z,7.2
2023-02-19T01:21:04.880Z,7.2
2023-02-19T01:22:00.716Z,7.2
2023-02-19T01:23:00.773Z,7.2
2023-02-19T01:24:00.742Z,7.2
2023-02-19T01:25:00.884Z,7.2
2023-02-19T01:26:03.093Z,7.2
2023-02-19T01:27:00.730Z,7.2
2023-02-19T01:28:00.733Z,7.2
2023-02-19T01:29:01.068Z,7.4
2023-02-19T01:30:00.829Z,7.4
2023-02-19T01:31:01.791Z,7.4
2023-02-19T01:32:00.921Z,7.4
2023-02-19T01:33:00.729Z,7.4
2023-02-19T01:34:01.579Z,7.4
2023-02-19T01:35:00.746Z,7.4
2023-02-19T01:36:02.586Z,7.4
2023-02-19T01:37:00.725Z,7.4
2023-02-19T01:38:00.698Z,7.4
2023-02-19T01:39:01.903Z,6.9
2023-02-19T01:40:00.724Z,6.9
2023-02-19T01:41:02.386Z,6.9
2023-02-19T01:42:00.740Z,6.9
2023-02-19T01:43:00.725Z,6.9
2023-02-19T01:44:03.701Z,6.9
2023-02-19T01:45:10.552Z,6.9
2023-02-19T01:46:00.755Z,6.9
2023-02-19T01:47:00.842Z,6.9
2023-02-19T01:48:00.704Z,6.9
2023-02-19T01:49:03.751Z,7.4
2023-02-19T01:50:00.783Z,7.4
2023-02-19T01:51:01.769Z,7.4
2023-02-19T01:52:04.154Z,7.4
2023-02-19T01:53:01.915Z,7.4
2023-02-19T01:54:01.915Z,7.4
2023-02-19T01:55:01.820Z,7.4
2023-02-19T01:56:01.980Z,7.4
2023-02-19T01:57:04.045Z,7.4
2023-02-19T01:58:01.135Z,7.4
2023-02-19T01:59:01.126Z,6.9
2023-02-19T02:00:05.211Z,6.9
2023-02-19T02:01:02.220Z,6.9
2023-02-19T02:02:00.799Z,6.9
2023-02-19T02:03:00.850Z,6.9
2023-02-19T02:04:00.870Z,6.9
2023-02-19T02:05:01.079Z,6.9
2023-02-19T02:06:04.374Z,6.9
2023-02-19T02:07:02.429Z,6.9
2023-02-19T02:08:02.173Z,6.9
2023-02-19T02:09:00.998Z,6.2
2023-02-19T02:10:01.722Z,6.2
2023-02-19T02:11:01.142Z,6.2
2023-02-19T02:12:00.752Z,6.2
2023-02-19T02:13:00.739Z,6.2
2023-02-19T02:14:01.775Z,6.2
2023-02-19T02:15:00.952Z,6.2
2023-02-19T02:16:05.408Z,6.2
2023-02-19T02:17:00.702Z,6.2
2023-02-19T02:18:08.060Z,6.2
2023-02-19T02:19:01.735Z,7.2
2023-02-19T02:20:10.602Z,7.2
2023-02-19T02:21:01.758Z,7.2
2023-02-19T02:22:05.772Z,7.2
2023-02-19T02:23:10.562Z,7.2
2023-02-19T02:24:10.582Z,7.2
2023-02-19T02:25:10.591Z,7.2
2023-02-19T02:26:10.604Z,7.2
2023-02-19T02:27:00.742Z,7.2
2023-02-19T02:28:10.560Z,7.2
2023-02-19T02:29:00.728Z,7.5
2023-02-19T02:30:10.593Z,7.5
2023-02-19T02:31:05.531Z,7.5
2023-02-19T02:32:04.710Z,7.5
2023-02-19T02:33:10.559Z,7.5
2023-02-19T02:34:04.728Z,7.5
2023-02-19T02:35:05.093Z,7.5
2023-02-19T02:36:09.824Z,7.5
2023-02-19T02:37:01.602Z,7.5
2023-02-19T02:38:03.940Z,7.5
2023-02-19T02:39:01.831Z,7.4
2023-02-19T02:40:01.850Z,7.4
2023-02-19T02:41:01.521Z,7.4
2023-02-19T02:42:00.747Z,7.4
2023-02-19T02:43:00.766Z,7.4
2023-02-19T02:44:00.749Z,7.4
2023-02-19T02:45:10.577Z,7.4
2023-02-19T02:46:00.789Z,7.4
2023-02-19T02:47:02.925Z,7.4
2023-02-19T02:48:05.029Z,7.4
2023-02-19T02:49:04.562Z,7.6
2023-02-19T02:50:01.058Z,7.6
2023-02-19T02:51:00.696Z,7.6
2023-02-19T02:52:01.300Z,7.6
2023-02-19T02:53:02.550Z,7.6
2023-02-19T02:54:06.526Z,7.6
2023-02-19T02:55:02.651Z,7.6
2023-02-19T02:56:01.099Z,7.6
2023-02-19T02:57:01.052Z,7.6
2023-02-19T02:58:01.575Z,7.6
2023-02-19T02:59:02.941Z,8.0
2023-02-19T03:00:00.782Z,8.0
2023-02-19T03:01:05.542Z,8.0
2023-02-19T03:02:10.675Z,8.0
2023-02-19T03:03:00.881Z,8.0
2023-02-19T03:04:02.061Z,8.0
2023-02-19T03:05:01.760Z,8.0
2023-02-19T03:06:03.750Z,8.0
2023-02-19T03:07:04.168Z,8.0
2023-02-19T03:08:10.618Z,8.0
2023-02-19T03:09:06.804Z,8.3
2023-02-19T03:10:02.140Z,8.3
2023-02-19T03:11:03.414Z,8.3
2023-02-19T03:12:02.389Z,8.3
2023-02-19T03:13:01.800Z,8.3
2023-02-19T03:14:03.831Z,8.3
2023-02-19T03:15:03.499Z,8.3
2023-02-19T03:16:05.679Z,8.3
2023-02-19T03:17:05.614Z,8.3
2023-02-19T03:18:02.585Z,8.3
2023-02-19T03:19:03.670Z,7.1
2023-02-19T03:20:03.676Z,7.1
2023-02-19T03:21:01.515Z,7.1
2023-02-19T03:22:05.798Z,7.1
2023-02-19T03:23:01.026Z,7.1
2023-02-19T03:24:01.992Z,7.1
2023-02-19T03:25:10.653Z,7.1
2023-02-19T03:26:00.924Z,7.1
2023-02-19T03:27:03.401Z,7.1
2023-02-19T03:28:02.617Z,7.1
2023-02-19T03:29:02.425Z,7.7
2023-02-19T03:30:04.146Z,7.7
2023-02-19T03:31:01.170Z,7.7
2023-02-19T03:32:03.407Z,7.7
2023-02-19T03:33:00.703Z,7.7
2023-02-19T03:34:03.420Z,7.7
2023-02-19T03:35:02.531Z,7.7
2023-02-19T03:36:04.540Z,7.7
2023-02-19T03:37:05.843Z,7.7
2023-02-19T03:38:05.859Z,7.7
2023-02-19T03:39:03.296Z,6.2
2023-02-19T03:40:00.819Z,6.2
2023-02-19T03:41:01.743Z,6.2
2023-02-19T03:42:04.875Z,6.2
2023-02-19T03:43:00.704Z,6.2
2023-02-19T03:44:01.787Z,6.2
2023-02-19T03:45:01.967Z,6.2
2023-02-19T03:46:01.803Z,6.2
2023-02-19T03:47:04.073Z,6.2
2023-02-19T03:48:10.571Z,6.2
2023-02-19T03:49:04.738Z,7.1
2023-02-19T03:50:01.696Z,7.1
2023-02-19T03:51:08.137Z,7.1
2023-02-19T03:52:01.074Z,7.1
2023-02-19T03:53:04.062Z,7.1
2023-02-19T03:54:10.597Z,7.1
2023-02-19T03:55:05.136Z,7.1
2023-02-19T03:56:00.757Z,7.1
2023-02-19T03:57:10.326Z,7.1
2023-02-19T03:58:07.682Z,7.1
2023-02-19T03:59:10.586Z,7.1
2023-02-19T04:00:10.412Z,7.1
2023-02-19T04:01:00.705Z,7.1
2023-02-19T04:02:04.687Z,7.1
2023-02-19T04:03:07.606Z,7.1
2023-02-19T04:04:00.746Z,7.1
2023-02-19T04:05:08.682Z,7.1
2023-02-19T04:06:02.476Z,7.1
2023-02-19T04:07:00.974Z,7.1
2023-02-19T04:08:05.446Z,7.1
2023-02-19T04:09:03.084Z,6.9
2023-02-19T04:10:01.092Z,6.9
2023-02-19T04:11:00.767Z,6.9
2023-02-19T04:12:00.841Z,6.9
2023-02-19T04:13:05.373Z,6.9
2023-02-19T04:14:05.504Z,6.9
2023-02-19T04:15:02.335Z,6.9
2023-02-19T04:16:02.795Z,6.9
2023-02-19T04:17:02.505Z,6.9
2023-02-19T04:18:07.421Z,6.9
2023-02-19T04:19:04.375Z,6.8
2023-02-19T04:20:02.525Z,6.8
2023-02-19T04:21:02.204Z,6.8
2023-02-19T04:22:02.121Z,6.8
2023-02-19T04:23:00.879Z,6.8
2023-02-19T04:24:03.421Z,6.8
2023-02-19T04:25:00.825Z,6.8
2023-02-19T04:26:01.666Z,6.8
2023-02-19T04:27:01.665Z,6.8
2023-02-19T04:28:01.420Z,6.8
2023-02-19T04:29:01.284Z,6.8
2023-02-19T04:30:00.808Z,6.7
2023-02-19T04:31:00.841Z,6.7
2023-02-19T04:32:00.857Z,6.7
2023-02-19T04:33:00.739Z,6.7
2023-02-19T04:34:01.178Z,6.7
2023-02-19T04:35:00.740Z,6.7
2023-02-19T04:36:00.719Z,6.7
2023-02-19T04:37:00.779Z,6.7
2023-02-19T04:38:00.721Z,6.7
2023-02-19T04:39:00.712Z,6.7
2023-02-19T04:40:00.802Z,7.1
2023-02-19T04:41:00.718Z,7.1
2023-02-19T04:42:00.933Z,7.1
2023-02-19T04:43:00.775Z,7.1
2023-02-19T04:44:00.719Z,7.1
2023-02-19T04:45:00.701Z,7.1
2023-02-19T04:46:01.095Z,7.1
2023-02-19T04:47:00.719Z,7.1
2023-02-19T04:48:00.726Z,7.1
2023-02-19T04:49:00.719Z,7.1
2023-02-19T04:50:00.740Z,6.4
2023-02-19T04:51:04.245Z,6.4
2023-02-19T04:52:00.748Z,6.4
2023-02-19T04:53:00.751Z,6.4
2023-02-19T04:54:00.761Z,6.4
2023-02-19T04:55:00.727Z,6.4
2023-02-19T04:56:04.862Z,6.4
2023-02-19T04:57:00.762Z,6.4
2023-02-19T04:58:00.708Z,6.4
2023-02-19T04:59:00.747Z,6.4
2023-02-19T05:00:00.905Z,6.7
2023-02-19T05:01:00.756Z,6.7
2023-02-19T05:02:00.782Z,6.7
2023-02-19T05:03:01.037Z,6.7
2023-02-19T05:04:00.828Z,6.7
2023-02-19T05:05:00.706Z,6.7
2023-02-19T05:06:05.451Z,6.7
2023-02-19T05:07:00.728Z,6.7
2023-02-19T05:08:00.742Z,6.7
2023-02-19T05:09:00.712Z,6.7
2023-02-19T05:10:00.727Z,5.3
2023-02-19T05:11:01.279Z,5.3
2023-02-19T05:12:00.754Z,5.3
2023-02-19T05:13:00.827Z,5.3
2023-02-19T05:14:00.733Z,5.3
2023-02-19T05:15:00.765Z,5.3
2023-02-19T05:16:02.038Z,5.3
2023-02-19T05:17:00.726Z,5.3
2023-02-19T05:18:00.705Z,5.3
2023-02-19T05:19:00.757Z,5.3
2023-02-19T05:20:00.701Z,5.8
2023-02-19T05:21:00.920Z,5.8
2023-02-19T05:22:00.725Z,5.8
2023-02-19T05:23:00.697Z,5.8
2023-02-19T05:24:00.826Z,5.8
2023-02-19T05:25:00.726Z,5.8
2023-02-19T05:26:05.073Z,5.8
2023-02-19T05:27:00.723Z,5.8
2023-02-19T05:28:00.756Z,5.8
2023-02-19T05:29:00.775Z,5.8
2023-02-19T05:30:00.802Z,5.9
2023-02-19T05:31:03.798Z,5.9
2023-02-19T05:32:00.820Z,5.9
2023-02-19T05:33:00.726Z,5.9
2023-02-19T05:34:00.718Z,5.9
2023-02-19T05:35:00.948Z,5.9
2023-02-19T05:36:04.229Z,5.9
2023-02-19T05:37:00.708Z,5.9
2023-02-19T05:38:00.751Z,5.9
2023-02-19T05:39:00.775Z,5.9
2023-02-19T05:40:00.736Z,6.0
2023-02-19T05:41:10.964Z,6.0
2023-02-19T05:42:00.718Z,6.0
2023-02-19T05:43:00.757Z,6.0
2023-02-19T05:44:00.780Z,6.0
2023-02-19T05:45:00.736Z,6.0
2023-02-19T05:46:00.919Z,6.0
2023-02-19T05:47:00.709Z,6.0
2023-02-19T05:48:01.021Z,6.0
2023-02-19T05:49:00.836Z,6.0
2023-02-19T05:50:00.733Z,6.5
2023-02-19T05:51:02.046Z,6.5
2023-02-19T05:52:00.719Z,6.5
2023-02-19T05:53:01.059Z,6.5
2023-02-19T05:54:00.745Z,6.5
2023-02-19T05:55:00.756Z,6.5
2023-02-19T05:56:00.794Z,6.5
2023-02-19T05:57:00.777Z,6.5
2023-02-19T05:58:00.739Z,6.5
2023-02-19T05:59:02.168Z,6.5
2023-02-19T06:00:00.748Z,5.5
2023-02-19T06:01:00.730Z,5.5
2023-02-19T06:02:00.728Z,5.5
2023-02-19T06:03:00.764Z,5.5
2023-02-19T06:04:00.750Z,5.5
2023-02-19T06:05:00.835Z,5.5
2023-02-19T06:06:02.446Z,5.5
2023-02-19T06:07:00.703Z,5.5
2023-02-19T06:08:00.762Z,5.5
2023-02-19T06:09:00.713Z,5.5
2023-02-19T06:10:01.040Z,5.5
2023-02-19T06:11:00.717Z,5.5
2023-02-19T06:12:00.705Z,5.5
2023-02-19T06:13:00.745Z,5.5
2023-02-19T06:14:00.911Z,5.5
2023-02-19T06:15:00.885Z,5.5
2023-02-19T06:16:04.785Z,5.5
2023-02-19T06:17:00.713Z,5.5
2023-02-19T06:18:00.724Z,5.5
2023-02-19T06:19:01.403Z,5.5
2023-02-19T06:20:00.928Z,5.1
2023-02-19T06:21:01.386Z,5.1
2023-02-19T06:22:00.783Z,5.1
2023-02-19T06:23:00.707Z,5.1
2023-02-19T06:24:04.852Z,5.1
2023-02-19T06:25:00.721Z,5.1
2023-02-19T06:26:08.053Z,5.1
2023-02-19T06:27:01.619Z,5.1
2023-02-19T06:28:00.704Z,5.1
2023-02-19T06:29:00.800Z,5.1
2023-02-19T06:30:00.878Z,5.4
2023-02-19T06:31:00.884Z,5.4
2023-02-19T06:32:00.950Z,5.4
2023-02-19T06:33:00.733Z,5.4
2023-02-19T06:34:02.588Z,5.4
2023-02-19T06:35:00.810Z,5.4
2023-02-19T06:36:01.717Z,5.4
2023-02-19T06:37:00.726Z,5.4
2023-02-19T06:38:00.730Z,5.4
2023-02-19T06:39:01.229Z,5.4
2023-02-19T06:40:00.735Z,5.8
2023-02-19T06:41:02.000Z,5.8
2023-02-19T06:42:00.734Z,5.8
2023-02-19T06:43:00.731Z,5.8
2023-02-19T06:44:00.873Z,5.8
2023-02-19T06:45:00.763Z,5.8
2023-02-19T06:46:01.717Z,5.8
2023-02-19T06:47:00.733Z,5.8
2023-02-19T06:48:00.748Z,5.8
2023-02-19T06:49:02.645Z,5.8
2023-02-19T06:50:00.750Z,6.7
2023-02-19T06:51:00.789Z,6.7
2023-02-19T06:52:00.812Z,6.7
2023-02-19T06:53:00.707Z,6.7
2023-02-19T06:54:00.801Z,6.7
2023-02-19T06:55:00.763Z,6.7
2023-02-19T06:56:02.891Z,6.7
2023-02-19T06:57:00.723Z,6.7
2023-02-19T06:58:00.736Z,6.7
2023-02-19T06:59:02.057Z,6.7
2023-02-19T07:00:00.741Z,6.4
2023-02-19T07:01:00.835Z,6.4
2023-02-19T07:02:00.735Z,6.4
2023-02-19T07:03:00.778Z,6.4
2023-02-19T07:04:01.050Z,6.4
2023-02-19T07:05:00.762Z,6.4
2023-02-19T07:06:00.740Z,6.4
2023-02-19T07:07:00.730Z,6.4
2023-02-19T07:08:00.738Z,6.4
2023-02-19T07:09:01.327Z,6.4
2023-02-19T07:10:00.762Z,5.2
2023-02-19T07:11:00.763Z,5.2
2023-02-19T07:12:00.715Z,5.2
2023-02-19T07:13:00.745Z,5.2
2023-02-19T07:14:02.073Z,5.2
2023-02-19T07:15:00.722Z,5.2
2023-02-19T07:16:01.712Z,5.2
2023-02-19T07:17:00.768Z,5.2
2023-02-19T07:18:00.717Z,5.2
2023-02-19T07:19:00.848Z,5.2
2023-02-19T07:20:00.713Z,5.9
2023-02-19T07:21:01.755Z,5.9
2023-02-19T07:22:00.728Z,5.9
2023-02-19T07:23:00.731Z,5.9
2023-02-19T07:24:00.744Z,5.9
2023-02-19T07:25:00.766Z,5.9
2023-02-19T07:26:00.786Z,5.9
2023-02-19T07:27:00.718Z,5.9
2023-02-19T07:28:00.702Z,5.9
2023-02-19T07:29:01.077Z,5.9
2023-02-19T07:30:00.836Z,7.4
2023-02-19T07:31:01.449Z,7.4
2023-02-19T07:32:01.066Z,7.4
2023-02-19T07:33:00.725Z,7.4
2023-02-19T07:34:01.741Z,7.4
2023-02-19T07:35:00.708Z,7.4
2023-02-19T07:36:00.799Z,7.4
2023-02-19T07:37:00.761Z,7.4
2023-02-19T07:38:00.768Z,7.4
2023-02-19T07:39:00.761Z,7.4
2023-02-19T07:40:00.843Z,7.1
2023-02-19T07:41:01.319Z,7.1
2023-02-19T07:42:00.726Z,7.1
2023-02-19T07:43:00.754Z,7.1
2023-02-19T07:44:00.771Z,7.1
2023-02-19T07:45:00.837Z,7.1
2023-02-19T07:46:02.743Z,7.1
2023-02-19T07:47:00.793Z,7.1
2023-02-19T07:48:00.761Z,7.1
2023-02-19T07:49:00.707Z,7.1
2023-02-19T07:50:00.738Z,7.4
2023-02-19T07:51:01.566Z,7.4
2023-02-19T07:52:00.725Z,7.4
2023-02-19T07:53:00.727Z,7.4
2023-02-19T07:54:00.722Z,7.4
2023-02-19T07:55:00.765Z,7.4
2023-02-19T07:56:01.688Z,7.4
2023-02-19T07:57:00.738Z,7.4
2023-02-19T07:58:00.786Z,7.4
2023-02-19T07:59:00.714Z,7.4
2023-02-19T08:00:00.829Z,8.1
2023-02-19T08:01:08.401Z,8.1
2023-02-19T08:02:00.705Z,8.1
2023-02-19T08:03:00.804Z,8.1
2023-02-19T08:04:00.723Z,8.1
2023-02-19T08:05:00.773Z,8.1
2023-02-19T08:06:00.730Z,8.1
2023-02-19T08:07:00.718Z,8.1
2023-02-19T08:08:00.778Z,8.1
2023-02-19T08:09:00.794Z,8.1
2023-02-19T08:10:01.332Z,9.1
2023-02-19T08:11:01.662Z,9.1
2023-02-19T08:12:00.753Z,9.1
2023-02-19T08:13:01.064Z,9.1
2023-02-19T08:14:00.755Z,9.1
2023-02-19T08:15:00.760Z,9.1
2023-02-19T08:16:15.637Z,9.1
2023-02-19T08:17:00.795Z,9.1
2023-02-19T08:18:00.744Z,9.1
2023-02-19T08:19:00.740Z,9.1
2023-02-19T08:20:00.795Z,8.8
2023-02-19T08:21:00.747Z,8.8
2023-02-19T08:22:00.705Z,8.8
2023-02-19T08:23:00.770Z,8.8
2023-02-19T08:24:00.736Z,8.8
2023-02-19T08:25:00.715Z,8.8
2023-02-19T08:26:01.171Z,8.8
2023-02-19T08:27:00.727Z,8.8
2023-02-19T08:28:00.774Z,8.8
2023-02-19T08:29:00.881Z,8.8
2023-02-19T08:30:00.786Z,9.1
2023-02-19T08:31:01.924Z,9.1
2023-02-19T08:32:00.797Z,9.1
2023-02-19T08:33:02.249Z,9.1
2023-02-19T08:34:00.826Z,9.1
2023-02-19T08:35:00.810Z,9.1
2023-02-19T08:36:01.682Z,9.1
2023-02-19T08:37:00.718Z,9.1
2023-02-19T08:38:01.041Z,9.1
2023-02-19T08:39:00.805Z,9.1
2023-02-19T08:40:00.812Z,9.4
2023-02-19T08:41:05.013Z,9.4
2023-02-19T08:42:00.788Z,9.4
2023-02-19T08:43:01.664Z,9.4
2023-02-19T08:44:00.733Z,9.4
2023-02-19T08:45:00.751Z,9.4
2023-02-19T08:46:01.047Z,9.4
2023-02-19T08:47:00.749Z,9.4
2023-02-19T08:48:00.718Z,9.4
2023-02-19T08:49:00.742Z,9.4
2023-02-19T08:50:00.792Z,7.8
2023-02-19T08:51:02.161Z,7.8
2023-02-19T08:52:00.750Z,7.8
2023-02-19T08:53:01.574Z,7.8
2023-02-19T08:54:01.882Z,7.8
2023-02-19T08:55:01.192Z,7.8
2023-02-19T08:56:05.259Z,7.8
2023-02-19T08:57:00.766Z,7.8
2023-02-19T08:58:00.722Z,7.8
2023-02-19T08:59:00.739Z,7.8
2023-02-19T09:00:00.734Z,7.3
2023-02-19T09:01:00.948Z,7.3
2023-02-19T09:02:00.729Z,7.3
2023-02-19T09:03:00.869Z,7.3
2023-02-19T09:04:00.836Z,7.3
2023-02-19T09:05:00.801Z,7.3
2023-02-19T09:06:00.713Z,7.3
2023-02-19T09:07:00.852Z,7.3
2023-02-19T09:08:00.749Z,7.3
2023-02-19T09:09:00.709Z,7.3
2023-02-19T09:10:00.773Z,6.4
2023-02-19T09:11:01.860Z,6.4
2023-02-19T09:12:00.719Z,6.4
2023-02-19T09:13:00.715Z,6.4
2023-02-19T09:14:00.712Z,6.4
2023-02-19T09:15:00.783Z,6.4
2023-02-19T09:16:01.950Z,6.4
2023-02-19T09:17:01.098Z,6.4
2023-02-19T09:18:00.728Z,6.4
2023-02-19T09:19:00.745Z,6.4
2023-02-19T09:20:00.750Z,6.2
2023-02-19T09:21:01.591Z,6.2
2023-02-19T09:22:01.570Z,6.2
2023-02-19T09:23:00.737Z,6.2
2023-02-19T09:24:00.722Z,6.2
2023-02-19T09:25:00.739Z,6.2
2023-02-19T09:26:01.173Z,6.2
2023-02-19T09:27:00.778Z,6.2
2023-02-19T09:28:00.742Z,6.2
2023-02-19T09:29:00.753Z,6.2
2023-02-19T09:30:00.766Z,7.2
2023-02-19T09:31:04.437Z,7.2
2023-02-19T09:32:00.751Z,7.2
2023-02-19T09:33:00.765Z,7.2
2023-02-19T09:34:00.799Z,7.2
2023-02-19T09:35:00.757Z,7.2
2023-02-19T09:36:01.144Z,7.2
2023-02-19T09:37:00.806Z,7.2
2023-02-19T09:38:00.741Z,7.2
2023-02-19T09:39:00.814Z,7.2
2023-02-19T09:40:00.748Z,7.1
2023-02-19T09:41:05.943Z,7.1
2023-02-19T09:42:03.563Z,7.1
2023-02-19T09:43:02.042Z,7.1
2023-02-19T09:44:02.630Z,7.1
2023-02-19T09:45:00.830Z,7.1
2023-02-19T09:46:03.342Z,7.1
2023-02-19T09:47:02.960Z,7.1
2023-02-19T09:48:01.320Z,7.1
2023-02-19T09:49:04.191Z,7.1
2023-02-19T09:50:05.524Z,7.3
2023-02-19T09:51:01.206Z,7.3
2023-02-19T09:52:10.563Z,7.3
2023-02-19T09:53:02.293Z,7.3
2023-02-19T09:54:01.559Z,7.3
2023-02-19T09:55:03.390Z,7.3
2023-02-19T09:56:00.831Z,7.3
2023-02-19T09:57:01.350Z,7.3
2023-02-19T09:58:02.437Z,7.3
2023-02-19T09:59:01.111Z,7.3
2023-02-19T10:00:10.795Z,7.3
2023-02-19T10:01:02.746Z,7.3
2023-02-19T10:02:03.567Z,7.3
2023-02-19T10:03:03.849Z,7.3
2023-02-19T10:04:00.724Z,7.3
2023-02-19T10:05:02.326Z,7.3
2023-02-19T10:06:04.324Z,7.3
2023-02-19T10:07:00.749Z,7.3
2023-02-19T10:08:03.645Z,7.3
2023-02-19T10:09:10.589Z,7.3
2023-02-19T10:10:10.553Z,7.4
2023-02-19T10:11:02.280Z,7.4
2023-02-19T10:12:01.023Z,7.4
2023-02-19T10:13:10.592Z,7.4
2023-02-19T10:14:01.704Z,7.4
2023-02-19T10:15:08.284Z,7.4
2023-02-19T10:16:01.985Z,7.4
2023-02-19T10:17:02.976Z,7.4
2023-02-19T10:18:01.550Z,7.4
2023-02-19T10:19:00.944Z,7.4
2023-02-19T10:20:00.996Z,8.0
2023-02-19T10:21:01.013Z,8.0
2023-02-19T10:22:01.916Z,8.0
2023-02-19T10:23:02.946Z,8.0
2023-02-19T10:24:01.988Z,8.0
2023-02-19T10:25:00.997Z,8.0
2023-02-19T10:26:00.761Z,8.0
2023-02-19T10:27:00.827Z,8.0
2023-02-19T10:28:01.377Z,8.0
2023-02-19T10:29:01.433Z,8.0
2023-02-19T10:30:00.814Z,8.6
2023-02-19T10:31:03.061Z,8.6
2023-02-19T10:32:10.607Z,8.6
2023-02-19T10:33:03.169Z,8.6
2023-02-19T10:34:01.224Z,8.6
2023-02-19T10:35:09.482Z,8.6
2023-02-19T10:36:03.806Z,8.6
2023-02-19T10:37:00.832Z,8.6
2023-02-19T10:38:01.021Z,8.6
2023-02-19T10:39:02.709Z,8.6
2023-02-19T10:40:00.743Z,9.2
2023-02-19T10:41:04.760Z,9.2
2023-02-19T10:42:01.454Z,9.2
2023-02-19T10:43:02.328Z,9.2
2023-02-19T10:44:10.577Z,9.2
2023-02-19T10:45:01.566Z,9.2
2023-02-19T10:46:02.119Z,9.2
2023-02-19T10:47:00.792Z,9.2
2023-02-19T10:48:01.452Z,9.2
2023-02-19T10:49:03.001Z,9.2
2023-02-19T10:50:03.414Z,8.9
2023-02-19T10:51:03.810Z,8.9
2023-02-19T10:52:10.585Z,8.9
2023-02-19T10:53:00.795Z,8.9
2023-02-19T10:54:03.966Z,8.9
2023-02-19T10:55:10.577Z,8.9
2023-02-19T10:56:10.605Z,8.9
2023-02-19T10:57:10.583Z,8.9
2023-02-19T10:58:10.589Z,8.9
2023-02-19T10:59:10.602Z,8.9
2023-02-19T11:00:10.561Z,8.9
2023-02-19T11:01:10.900Z,8.9
2023-02-19T11:02:02.148Z,8.9
2023-02-19T11:03:10.581Z,8.9
2023-02-19T11:04:10.617Z,8.9
2023-02-19T11:05:01.758Z,8.9
2023-02-19T11:06:03.264Z,8.9
2023-02-19T11:07:09.695Z,8.9
2023-02-19T11:08:00.772Z,8.9
2023-02-19T11:09:00.803Z,8.9
2023-02-19T11:10:02.141Z,9.8
2023-02-19T11:11:00.768Z,9.8
2023-02-19T11:12:00.783Z,9.8
2023-02-19T11:13:02.263Z,9.8
2023-02-19T11:14:04.132Z,9.8
2023-02-19T11:15:10.553Z,9.8
2023-02-19T11:16:00.840Z,9.8
2023-02-19T11:17:02.457Z,9.8
2023-02-19T11:18:04.131Z,9.8
2023-02-19T11:19:00.738Z,9.8
2023-02-19T11:20:08.907Z,9.6
2023-02-19T11:21:02.658Z,9.6
2023-02-19T11:22:01.163Z,9.6
2023-02-19T11:23:06.038Z,9.6
2023-02-19T11:24:01.513Z,9.6
2023-02-19T11:25:05.229Z,9.6
2023-02-19T11:26:02.382Z,9.6
2023-02-19T11:27:02.690Z,9.6
2023-02-19T11:28:10.551Z,9.6
2023-02-19T11:29:10.562Z,9.6
2023-02-19T11:30:10.606Z,10.4
2023-02-19T11:31:11.222Z,10.4
2023-02-19T11:32:10.698Z,10.4
2023-02-19T11:33:10.555Z,10.4
2023-02-19T11:34:02.965Z,10.4
2023-02-19T11:35:10.552Z,10.4
2023-02-19T11:36:10.572Z,10.4
2023-02-19T11:37:10.551Z,10.4
2023-02-19T11:38:01.203Z,10.4
2023-02-19T11:39:10.585Z,10.4
2023-02-19T11:40:00.750Z,10.2
2023-02-19T11:41:11.167Z,10.2
2023-02-19T11:42:00.727Z,10.2
2023-02-19T11:43:10.684Z,10.2
2023-02-19T11:44:00.718Z,10.2
2023-02-19T11:45:10.561Z,10.2
2023-02-19T11:46:10.622Z,10.2
2023-02-19T11:47:10.576Z,10.2
2023-02-19T11:48:10.561Z,10.2
2023-02-19T11:49:10.554Z,10.2
2023-02-19T11:50:01.696Z,10.2
2023-02-19T11:51:01.729Z,10.2
2023-02-19T11:52:01.798Z,10.2
2023-02-19T11:53:10.557Z,10.2
2023-02-19T11:54:10.562Z,10.2
2023-02-19T11:55:00.712Z,10.2
2023-02-19T11:56:10.585Z,10.2
2023-02-19T11:57:08.047Z,10.2
2023-02-19T11:58:10.601Z,10.2
2023-02-19T11:59:01.864Z,10.2
2023-02-19T12:00:10.557Z,9.5
2023-02-19T12:01:06.942Z,9.5
2023-02-19T12:02:00.784Z,9.5
2023-02-19T12:03:10.608Z,9.5
2023-02-19T12:04:10.573Z,9.5
2023-02-19T12:05:04.122Z,9.5
2023-02-19T12:06:01.742Z,9.5
2023-02-19T12:07:10.648Z,9.5
2023-02-19T12:08:04.108Z,9.5
2023-02-19T12:09:10.680Z,9.5
2023-02-19T12:10:08.100Z,9.8
2023-02-19T12:11:10.567Z,9.8
2023-02-19T12:12:10.554Z,9.8
2023-02-19T12:13:01.771Z,9.8
2023-02-19T12:14:08.072Z,9.8
2023-02-19T12:15:08.282Z,9.8
2023-02-19T12:16:10.588Z,9.8
2023-02-19T12:17:10.573Z,9.8
2023-02-19T12:18:08.067Z,9.8
2023-02-19T12:19:00.714Z,9.8
2023-02-19T12:20:10.584Z,9.9
2023-02-19T12:21:10.766Z,9.9
2023-02-19T12:22:10.569Z,9.9
2023-02-19T12:23:10.565Z,9.9
2023-02-19T12:24:09.290Z,9.9
2023-02-19T12:25:10.560Z,9.9
2023-02-19T12:26:04.093Z,9.9
2023-02-19T12:27:10.697Z,9.9
2023-02-19T12:28:09.527Z,9.9
2023-02-19T12:29:10.022Z,9.9
2023-02-19T12:30:10.565Z,10.2
2023-02-19T12:31:04.091Z,10.2
2023-02-19T12:32:00.767Z,10.2
2023-02-19T12:33:04.079Z,10.2
2023-02-19T12:34:10.616Z,10.2
2023-02-19T12:35:10.548Z,10.2
2023-02-19T12:36:04.077Z,10.2
2023-02-19T12:37:08.089Z,10.2
2023-02-19T12:38:00.744Z,10.2
2023-02-19T12:39:06.739Z,10.2
2023-02-19T12:40:08.104Z,9.6
2023-02-19T12:41:10.561Z,9.6
2023-02-19T12:42:08.039Z,9.6
2023-02-19T12:43:01.736Z,9.6
2023-02-19T12:44:04.293Z,9.6
2023-02-19T12:45:05.706Z,9.6
2023-02-19T12:46:03.931Z,9.6
2023-02-19T12:47:02.476Z,9.6
2023-02-19T12:48:06.239Z,9.6
2023-02-19T12:49:04.815Z,9.6
2023-02-19T12:50:01.866Z,9.6
2023-02-19T12:51:10.575Z,9.6
2023-02-19T12:52:10.589Z,9.6
2023-02-19T12:53:04.461Z,9.6
2023-02-19T12:54:01.793Z,9.6
2023-02-19T12:55:10.531Z,9.6
2023-02-19T12:56:03.465Z,9.6
2023-02-19T12:57:04.149Z,9.6
2023-02-19T12:58:01.983Z,9.6
2023-02-19T12:59:05.510Z,9.6
2023-02-19T13:00:10.588Z,9.5
2023-02-19T13:01:01.356Z,9.5
2023-02-19T13:02:10.655Z,9.5
2023-02-19T13:03:10.558Z,9.5
2023-02-19T13:04:10.581Z,9.5
2023-02-19T13:05:01.226Z,9.5
2023-02-19T13:06:00.753Z,9.5
2023-02-19T13:07:05.609Z,9.5
2023-02-19T13:08:05.260Z,9.5
2023-02-19T13:09:07.011Z,9.5
2023-02-19T13:10:08.158Z,10.0
2023-02-19T13:11:03.970Z,10.0
2023-02-19T13:12:01.792Z,10.0
2023-02-19T13:13:04.344Z,10.0
2023-02-19T13:14:10.601Z,10.0
2023-02-19T13:15:03.269Z,10.0
2023-02-19T13:16:04.938Z,10.0
2023-02-19T13:17:05.309Z,10.0
2023-02-19T13:18:02.565Z,10.0
2023-02-19T13:19:02.262Z,10.0
2023-02-19T13:20:06.534Z,10.0
2023-02-19T13:21:01.496Z,8.9
2023-02-19T13:22:04.476Z,8.9
2023-02-19T13:23:10.568Z,8.9
2023-02-19T13:24:03.269Z,8.9
2023-02-19T13:25:01.805Z,8.9
2023-02-19T13:26:10.824Z,8.9
2023-02-19T13:27:01.769Z,8.9
2023-02-19T13:28:10.608Z,8.9
2023-02-19T13:29:08.132Z,8.9
2023-02-19T13:30:00.748Z,8.9
2023-02-19T13:31:11.026Z,8.2
2023-02-19T13:32:10.654Z,8.2
2023-02-19T13:33:04.585Z,8.2
2023-02-19T13:34:00.723Z,8.2
2023-02-19T13:35:11.570Z,8.2
2023-02-19T13:36:08.767Z,8.2
2023-02-19T13:37:01.506Z,8.2
2023-02-19T13:38:02.004Z,8.2
2023-02-19T13:39:03.766Z,8.2
2023-02-19T13:40:03.615Z,8.2
2023-02-19T13:41:00.833Z,7.7
2023-02-19T13:42:01.071Z,7.7
2023-02-19T13:43:03.480Z,7.7
2023-02-19T13:44:03.219Z,7.7
2023-02-19T13:45:03.182Z,7.7